Port Richey, Florida
Current Conditions -  °F | °C
As of 10:53 AM on Thursday 30 Oct 2014 (Local Time) from KBKV Reporting Station
Few Clouds Few Clouds  
Wind Chill: 77°   Ceiling: Unl
Heat Index: 79°   Visibility: 10mi
Dew Point: 64°   Wind: 5mph
Humidity: 64%   Direction: 30°NNE
Pressure: 30.01"   Gusts: NA
Location:  28.27°N, 82.73°W
Report Text: KBKV 301453Z 03004KT 10SM FEW120 25/18 A3001 RMK AO2 SLP161 T02500178 52005
Loading
Personal Weather Stations






























Interactive Weather Map
Tropical Storm Tracking
New forecast layout! Learn more

10-Day Weather Forecast

Advertisements
Track Severe Weather on mobile